Latest Weather Observations for Cooma Airport

IDN60901

Issued at 10:41 pm EST Monday 22 April 2019 (issued every 10 minutes, with the page automatically refreshed every 10 minutes)

About weather observations | Map of Canberra area stations | Latest observations for Canberra area | Other Formats
Station Details ID: 070217 Name: COOMA AIRPORT AWS Lat: -36.29 Lon: 148.97 Height: 930.0 m
Data from the previous 72 hours. | See also: Recent months at Cooma Airport
Date/Time
EST
Temp
°C
App
Temp
°C
Dew
Point
°C
Rel
Hum
%
Delta-T
°C
Wind Press
QNH
hPa
Press
MSL
hPa
Rain since
9am
mm
Dir  Spd
km/h
Gust
km/h
Spd
kts
Gust
kts
22/10:33pm 13.0 12.2 13.0 100 0.0 E 9 13 5 7 1029.4 1028.3 8.8
22/10:30pm 13.0 12.2 13.0 100 0.0 ENE 9 13 5 7 1029.4 1028.3 8.8
22/10:00pm 13.1 12.7 13.1 100 0.0 E 7 9 4 5 1029.2 1028.2 8.6
22/09:30pm 13.3 13.0 13.3 100 0.0 NNE 7 11 4 6 1029.1 1028.1 8.4
22/09:00pm 13.4 13.1 13.4 100 0.0 NE 7 13 4 7 1028.8 1027.8 8.2
22/08:55pm 13.4 12.8 13.4 100 0.0 NE 9 13 5 7 1028.8 1027.8 8.0
22/08:30pm 13.5 12.9 13.5 100 0.0 NNE 9 13 5 7 1028.6 1027.5 7.4
22/08:00pm 13.5 12.9 13.5 100 0.0 NE 9 13 5 7 1028.4 1027.3 7.4
22/07:31pm 13.5 11.4 13.5 100 0.0 NE 17 20 9 11 1027.9 1026.9 7.4
22/07:30pm 13.5 11.4 13.5 100 0.0 NE 17 20 9 11 1027.9 1026.9 7.4
22/07:15pm 13.5 11.4 13.5 100 0.0 NE 17 20 9 11 1027.6 1026.5 6.8
22/07:12pm 13.5 11.0 13.5 100 0.0 NE 19 22 10 12 1027.6 1026.5 6.8
22/07:00pm 13.5 11.0 13.5 100 0.0 NE 19 24 10 13 1027.3 1026.2 6.4
22/06:43pm 13.6 11.1 13.6 100 0.0 NE 19 22 10 12 1027.4 1026.3 5.0
22/06:42pm 13.7 11.3 13.7 100 0.0 NE 19 20 10 11 1027.4 1026.3 5.0
22/06:30pm 13.8 11.4 13.8 100 0.0 NE 19 24 10 13 1027.2 1026.1 4.6
22/06:17pm 14.1 11.8 14.1 100 0.0 NE 19 24 10 13 1026.9 1025.9 3.8
22/06:00pm 14.2 11.9 14.2 100 0.0 NE 19 26 10 14 1026.8 1025.8 3.4
22/05:30pm 14.3 11.1 14.3 100 0.0 NE 24 30 13 16 1026.2 1025.1 3.4
22/05:28pm 14.3 11.5 14.3 100 0.0 NE 22 30 12 16 1026.1 1025.0 3.4
22/05:00pm 14.6 12.3 14.6 100 0.0 ENE 20 26 11 14 1025.5 1024.4 3.2
22/04:30pm 14.9 11.5 14.7 99 0.1 ENE 26 37 14 20 1025.1 1024.0 3.0
22/04:00pm 15.4 12.5 15.2 99 0.1 ENE 24 30 13 16 1025.1 1024.0 2.4
22/03:41pm 15.8 12.3 15.6 99 0.1 ENE 28 33 15 18 1024.9 1023.7 2.2
22/03:30pm 16.1 12.7 15.9 99 0.1 NE 28 32 15 17 1024.4 1023.3 1.6
22/03:25pm 16.2 13.6 16.0 99 0.1 NE 24 32 13 17 1024.1 1023.0 1.4
22/03:14pm 16.0 14.2 15.4 96 0.4 NE 19 26 10 14 1024.1 1023.0 1.0
22/03:00pm 16.0 12.5 13.3 84 1.6 NE 24 30 13 16 1024.4 1023.3 1.0
22/02:51pm 17.2 14.4 14.3 83 1.7 ENE 22 28 12 15 1024.3 1023.2 0.2
22/02:30pm 19.4 17.1 13.1 67 3.7 ENE 17 24 9 13 1023.9 1022.7 0.0
22/02:00pm 20.4 19.7 11.9 58 4.9 NE 7 11 4 6 1023.8 1022.6 0.0
22/01:30pm 19.8 18.4 11.0 57 5.0 NE 9 13 5 7 1024.1 1023.0 0.0
22/01:00pm 19.3 17.9 10.8 58 4.8 NE 9 15 5 8 1024.0 1022.8 0.0
22/12:30pm 19.1 17.8 11.4 61 4.4 ENE 9 13 5 7 1024.2 1023.1 0.0
22/12:00pm 18.4 17.0 11.0 62 4.2 ENE 9 15 5 8 1024.5 1023.4 0.0
22/11:30am 18.3 17.0 11.4 64 3.9 NE 9 15 5 8 1025.0 1023.9 0.0
22/11:00am 17.9 15.6 10.3 61 4.2 ENE 13 17 7 9 1025.1 1024.0 0.0
22/10:30am 17.6 15.3 11.6 68 3.4 ENE 15 20 8 11 1025.1 1024.0 0.0
22/10:00am 16.9 14.4 11.2 69 3.2 NE 15 19 8 10 1025.2 1024.1 0.0
22/09:30am 17.5 16.9 11.8 69 3.3 SW 6 11 3 6 1025.3 1024.2 0.0
22/09:00am 15.9 15.4 12.5 80 1.9 NNE 7 11 4 6 1025.3 1024.2 0.0
22/08:30am 14.4 12.0 11.4 82 1.7 ENE 15 20 8 11 1024.8 1023.6 0.0
22/08:00am 12.3 10.3 11.4 94 0.5 NE 13 15 7 8 1025.2 1024.1 0.0
22/07:30am 12.3 10.6 11.2 93 0.6 NE 11 15 6 8 1025.0 1023.9 0.0
22/07:00am 11.7 10.3 10.9 95 0.4 ENE 9 11 5 6 1024.9 1023.7 0.0
22/06:30am 11.2 10.9 10.1 93 0.6 ENE 2 9 1 5 1024.5 1023.4 0.0
22/06:00am 11.3 10.2 10.5 95 0.4 WSW 7 11 4 6 1024.4 1023.3 0.0
22/05:30am 10.3 8.7 10.1 99 0.1 S 9 11 5 6 1024.1 1023.0 0.0
22/05:00am 10.0 8.2 9.5 97 0.3 NNE 9 11 5 6 1024.1 1023.0 0.0
22/04:30am 10.6 10.2 9.8 95 0.4 NW 2 7 1 4 1023.4 1022.3 0.0
22/04:00am 9.6 8.1 9.0 96 0.3 NNE 7 9 4 5 1023.4 1022.3 0.0
22/03:30am 10.0 8.1 9.2 95 0.4 N 9 9 5 5 1023.4 1022.3 0.0
22/03:00am 9.7 7.2 9.6 99 0.1 N 13 15 7 8 1023.3 1022.2 0.0
22/02:30am 9.5 9.3 8.9 96 0.3 CALM 0 0 0 0 1023.8 1022.6 0.0
22/02:00am 9.2 8.9 8.7 97 0.3 CALM 0 0 0 0 1023.6 1022.4 0.0
22/01:30am 8.5 6.3 7.7 95 0.4 NE 9 11 5 6 1023.6 1022.4 0.0
22/01:00am 9.2 7.1 8.3 94 0.5 NE 9 11 5 6 1023.8 1022.6 0.0
22/12:30am 9.3 7.9 8.8 97 0.3 NNE 6 11 3 6 1023.9 1022.7 0.0
22/12:00am 8.3 7.6 6.9 91 0.7 CALM 0 0 0 0 1023.9 1022.7 0.0
 
Date/Time
EST
Temp
°C
App
Temp
°C
Dew
Point
°C
Rel
Hum
%
Delta-T
°C
Wind Press
QNH
hPa
Press
MSL
hPa
Rain since
9am
mm
Dir  Spd
km/h
Gust
km/h
Spd
kts
Gust
kts
21/11:30pm 9.0 8.4 7.6 91 0.7 CALM 0 0 0 0 1023.9 1022.7 0.0
21/11:00pm 9.3 8.8 7.7 90 0.8 CALM 0 0 0 0 1024.1 1023.0 0.0
21/10:30pm 9.1 8.4 6.9 86 1.1 CALM 0 0 0 0 1024.4 1023.3 0.0
21/10:00pm 9.6 9.1 7.7 88 1.0 CALM 0 0 0 0 1024.3 1023.2 0.0
21/09:30pm 10.1 9.6 7.7 85 1.2 CALM 0 0 0 0 1024.4 1023.3 0.0
21/09:00pm 9.8 9.0 6.3 79 1.7 CALM 0 6 0 3 1024.2 1023.1 0.0
21/08:30pm 11.2 10.7 7.9 80 1.7 CALM 0 0 0 0 1023.9 1022.7 0.0
21/08:00pm 12.7 12.5 9.0 78 1.9 CALM 0 0 0 0 1023.7 1022.5 0.0
21/07:30pm 12.0 10.7 7.7 75 2.2 SSE 4 7 2 4 1023.7 1022.5 0.0
21/07:00pm 13.5 13.2 8.8 73 2.5 CALM 0 0 0 0 1023.6 1022.4 0.0
21/06:30pm 14.2 12.7 8.4 68 3.1 NW 6 9 3 5 1023.6 1022.4 0.0
21/06:00pm 14.8 14.3 7.8 63 3.6 CALM 0 0 0 0 1023.6 1022.4 0.0
21/05:30pm 17.8 16.3 8.6 55 5.0 NW 6 7 3 4 1023.3 1022.2 0.0
21/05:00pm 19.3 17.7 8.6 50 5.8 NW 7 11 4 6 1023.4 1022.3 0.0
21/04:30pm 20.3 17.7 9.2 49 6.2 NW 13 19 7 10 1023.2 1022.1 0.0
21/04:00pm 20.5 17.9 9.4 49 6.2 NNW 13 19 7 10 1023.3 1022.2 0.0
21/03:30pm 21.0 18.8 9.3 47 6.5 WNW 11 17 6 9 1023.3 1022.2 0.0
21/03:00pm 21.2 18.2 9.1 46 6.7 NW 15 20 8 11 1023.6 1022.4 0.0
21/02:30pm 21.3 18.2 8.9 45 6.9 NW 15 26 8 14 1023.4 1022.3 0.0
21/02:00pm 22.1 18.7 9.3 44 7.2 NNW 17 22 9 12 1023.6 1022.4 0.0
21/01:30pm 21.6 17.5 8.8 44 7.1 NNW 20 32 11 17 1023.7 1022.5 0.0
21/01:00pm 21.2 17.4 9.1 46 6.7 NW 19 26 10 14 1024.1 1023.0 0.0
21/12:30pm 21.5 17.5 9.1 45 6.9 NNW 20 26 11 14 1024.1 1023.0 0.0
21/12:00pm 21.8 18.2 9.7 46 6.8 NNW 19 28 10 15 1024.6 1023.5 0.0
21/11:30am 21.6 17.9 8.1 42 7.4 N 17 30 9 16 1024.9 1023.7 0.0
21/11:00am 20.2 17.7 12.2 60 4.7 NE 17 20 9 11 1025.3 1024.2 0.0
21/10:30am 18.9 16.6 13.1 69 3.4 NE 17 19 9 10 1025.6 1024.5 0.0
21/10:00am 16.7 14.3 12.8 78 2.3 NE 17 20 9 11 1025.7 1024.6 0.0
21/09:30am 16.4 14.3 13.5 83 1.7 NE 17 20 9 11 1025.8 1024.7 0.0
21/09:00am 14.5 12.4 13.7 95 0.5 NE 17 20 9 11 1026.1 1025.0 0.2
21/08:30am 12.8 10.4 12.8 100 0.0 NE 17 19 9 10 1025.8 1024.7 0.2
21/08:00am 11.2 8.7 11.2 100 0.0 NE 15 19 8 10 1025.8 1024.7 0.2
21/07:30am 10.3 7.2 10.3 100 0.0 NE 17 20 9 11 1025.6 1024.5 0.2
21/07:12am 10.0 6.8 10.0 100 0.0 NE 17 22 9 12 1025.5 1024.4 0.2
21/07:00am 9.4 6.4 9.4 100 0.0 NE 15 17 8 9 1025.5 1024.4 0.2
21/06:32am 9.9 6.3 9.9 100 0.0 NE 19 22 10 12 1025.3 1024.2 0.2
21/06:30am 10.0 6.4 10.0 100 0.0 NE 19 22 10 12 1025.3 1024.2 0.2
21/06:24am 10.1 6.6 10.1 100 0.0 NE 19 22 10 12 1025.2 1024.1 0.2
21/06:10am 9.8 6.6 9.8 100 0.0 NE 17 20 9 11 1025.3 1024.2 0.2
21/06:00am 9.6 5.9 9.6 100 0.0 NE 19 20 10 11 1025.2 1024.1 0.2
21/05:30am 9.3 6.3 9.3 100 0.0 NE 15 17 8 9 1025.2 1024.1 0.2
21/05:00am 9.4 6.8 9.4 100 0.0 NE 13 15 7 8 1024.9 1023.7 0.0
21/04:30am 10.0 7.6 10.0 100 0.0 NE 13 15 7 8 1024.8 1023.6 0.0
21/04:00am 10.0 8.3 10.0 100 0.0 NE 9 11 5 6 1024.9 1023.7 0.0
21/03:32am 8.8 6.8 8.8 100 0.0 NE 9 11 5 6 1024.8 1023.6 0.0
21/03:30am 8.6 6.6 8.6 100 0.0 NE 9 11 5 6 1024.8 1023.6 0.0
21/03:00am 9.0 7.1 9.0 100 0.0 NNE 9 13 5 7 1024.9 1023.7 0.0
21/02:30am 8.5 5.7 8.5 100 0.0 NE 13 17 7 9 1025.1 1024.0 0.0
21/02:00am 8.7 7.1 8.7 100 0.0 NNE 7 9 4 5 1025.3 1024.2 0.0
21/01:30am 8.5 7.0 8.5 100 0.0 N 6 11 3 6 1025.4 1024.3 0.0
21/01:00am 9.0 7.1 9.0 100 0.0 NNE 9 13 5 7 1025.4 1024.3 0.0
21/12:57am 9.2 7.0 9.2 100 0.0 NNE 11 13 6 7 1025.4 1024.3 0.0
21/12:48am 8.7 6.3 8.7 100 0.0 NNE 11 13 6 7 1025.4 1024.3 0.0
21/12:30am 9.0 6.3 9.0 100 0.0 NE 13 15 7 8 1025.4 1024.3 0.0
21/12:00am 11.2 9.9 11.2 100 0.0 N 9 13 5 7 1025.6 1024.5 0.0
 
Date/Time
EST
Temp
°C
App
Temp
°C
Dew
Point
°C
Rel
Hum
%
Delta-T
°C
Wind Press
QNH
hPa
Press
MSL
hPa
Rain since
9am
mm
Dir  Spd
km/h
Gust
km/h
Spd
kts
Gust
kts
20/11:30pm 9.2 7.3 9.2 100 0.0 NNE 9 13 5 7 1025.6 1024.5 0.0
20/11:00pm 10.7 8.5 10.7 100 0.0 NNE 13 13 7 7 1026.0 1024.9 0.0
20/10:48pm 10.9 9.1 10.9 100 0.0 NNE 11 13 6 7 1026.0 1024.9 0.0
20/10:30pm 10.6 8.7 10.6 100 0.0 NNE 11 13 6 7 1026.2 1025.1 0.0
20/10:00pm 12.0 10.5 12.0 100 0.0 N 11 13 6 7 1026.4 1025.3 0.0
20/09:30pm 11.7 10.1 11.7 100 0.0 NNE 11 13 6 7 1026.2 1025.1 0.0
20/09:20pm 11.7 10.1 11.7 100 0.0 NNE 11 13 6 7 1026.2 1025.1 0.0
20/09:00pm 12.6 11.7 12.6 100 0.0 N 9 11 5 6 1026.2 1025.1 0.0
20/08:30pm 12.5 11.1 12.3 99 0.1 NNE 11 13 6 7 1026.0 1024.9 0.0
20/08:00pm 13.1 12.3 12.9 99 0.1 NNE 9 11 5 6 1026.0 1024.9 0.0
20/07:30pm 13.6 12.9 13.1 97 0.3 NE 9 11 5 6 1025.5 1024.4 0.0
20/07:00pm 15.1 13.9 14.0 93 0.6 NE 13 15 7 8 1025.5 1024.4 0.0
20/06:30pm 16.1 14.8 13.6 85 1.5 ENE 13 17 7 9 1025.3 1024.2 0.0
20/06:00pm 17.3 15.8 13.0 76 2.5 ENE 13 17 7 9 1024.9 1023.7 0.0
20/05:30pm 18.7 15.9 8.4 51 5.6 NNE 13 17 7 9 1024.5 1023.4 0.0
20/05:00pm 20.7 18.0 7.3 42 7.2 NNE 11 17 6 9 1024.3 1023.2 0.0
20/04:30pm 22.3 18.9 6.1 35 8.6 NNW 13 20 7 11 1024.1 1023.0 0.0
20/04:00pm 23.0 19.6 5.9 33 9.0 NW 13 17 7 9 1024.1 1023.0 0.0
20/03:30pm 23.3 20.0 6.6 34 9.0 NW 13 20 7 11 1024.2 1023.1 0.0
20/03:00pm 23.5 20.8 5.4 31 9.5 N 9 15 5 8 1024.4 1023.3 0.0
20/02:30pm 23.5 20.1 5.9 32 9.4 NE 13 20 7 11 1024.6 1023.5 0.0
20/02:00pm 23.3 20.4 8.2 38 8.3 NNE 13 20 7 11 1024.9 1023.7 0.0
20/01:30pm 23.7 22.2 10.7 44 7.5 N 9 17 5 9 1025.2 1024.1 0.0
20/01:00pm 23.1 18.8 6.8 35 8.8 ENE 19 26 10 14 1025.4 1024.3 0.0
20/12:30pm 21.9 18.4 8.8 43 7.3 NE 17 24 9 13 1026.1 1025.0 0.0
20/12:00pm 21.7 18.8 11.1 51 6.1 NE 17 20 9 11 1026.6 1025.5 0.0
20/11:30am 20.0 17.1 11.0 56 5.1 NE 17 22 9 12 1027.3 1026.2 0.0
20/11:00am 18.8 15.8 11.9 64 4.0 NE 19 24 10 13 1027.6 1026.5 0.0
20/10:30am 16.2 14.1 13.7 85 1.5 NE 17 20 9 11 1027.9 1026.9 0.0
20/10:00am 14.6 12.9 13.5 93 0.6 NE 15 19 8 10 1028.1 1027.1 0.0
20/09:33am 11.7 8.9 11.5 99 0.1 NE 17 19 9 10 1028.6 1027.5 0.0
20/09:30am 11.6 9.3 11.6 100 0.0 NE 15 19 8 10 1028.6 1027.5 0.0
20/09:25am 11.3 8.9 11.3 100 0.0 NE 15 19 8 10 1028.7 1027.6 0.0
20/09:00am 10.6 7.6 10.6 100 0.0 NE 17 20 9 11 1028.8 1027.8 0.0
20/08:30am 9.4 6.1 9.4 100 0.0 NE 17 20 9 11 1028.7 1027.6 0.0
20/08:00am 8.8 4.9 8.8 100 0.0 NNE 19 20 10 11 1028.6 1027.5 0.0
20/07:43am 8.3 4.7 8.3 100 0.0 NNE 17 20 9 11 1028.4 1027.3 0.0
20/07:41am 8.2 4.6 8.2 100 0.0 NNE 17 20 9 11 1028.4 1027.3 0.0
20/07:30am 8.0 4.7 8.0 100 0.0 NE 15 20 8 11 1028.3 1027.2 0.0
20/07:19am 7.9 4.6 7.9 100 0.0 NE 15 17 8 9 1028.1 1027.1 0.0
20/07:16am 7.8 4.1 7.8 100 0.0 NE 17 19 9 10 1028.1 1027.1 0.0
20/07:00am 7.7 3.9 7.7 100 0.0 NE 17 19 9 10 1028.0 1027.0 0.0
20/06:30am 8.6 5.4 8.6 100 0.0 NNE 15 17 8 9 1027.7 1026.6 0.0
20/06:00am 9.9 7.1 9.9 100 0.0 NNE 15 19 8 10 1027.8 1026.8 0.0
20/05:30am 10.2 7.8 10.2 100 0.0 NNE 13 17 7 9 1027.7 1026.6 0.0
20/05:00am 10.3 8.0 10.3 100 0.0 NE 13 15 7 8 1027.8 1026.8 0.0
20/04:30am 10.1 8.1 10.1 100 0.0 NNE 11 13 6 7 1027.8 1026.8 0.0
20/04:00am 9.9 8.2 9.9 100 0.0 NE 9 11 5 6 1027.9 1026.9 0.0
20/03:30am 10.2 8.2 10.2 100 0.0 NNE 11 13 6 7 1027.8 1026.8 0.0
20/03:00am 10.1 8.1 10.1 100 0.0 NE 11 13 6 7 1027.7 1026.6 0.0
20/02:30am 10.1 8.8 10.1 100 0.0 NNE 7 9 4 5 1027.8 1026.8 0.0
20/02:00am 9.1 7.2 9.1 100 0.0 N 9 9 5 5 1027.9 1026.9 0.0
20/01:30am 6.9 5.0 6.8 99 0.0 N 6 7 3 4 1028.3 1027.2 0.0
20/01:20am 7.2 5.3 6.8 97 0.2 N 6 7 3 4 1028.3 1027.2 0.0
20/01:00am 8.7 7.6 8.6 99 0.1 NNW 4 7 2 4 1028.5 1027.4 0.0
20/12:53am 9.0 7.5 9.0 100 0.0 N 7 9 4 5 1028.5 1027.4 0.0
20/12:30am 10.4 8.9 10.4 100 0.0 N 9 9 5 5 1028.4 1027.3 0.0
20/12:00am 9.9 7.8 9.9 100 0.0 N 11 13 6 7 1028.5 1027.4 0.0
 
Date/Time
EST
Temp
°C
App
Temp
°C
Dew
Point
°C
Rel
Hum
%
Delta-T
°C
Wind Press
QNH
hPa
Press
MSL
hPa
Rain since
9am
mm
Dir  Spd
km/h
Gust
km/h
Spd
kts
Gust
kts
19/11:30pm 6.9 4.4 6.6 98 0.1 NNE 9 9 5 5 1028.7 1027.6 0.0
19/11:00pm 6.9 4.2 5.8 93 0.5 N 9 9 5 5 1028.8 1027.8 0.0

Latest Capital City Observations: Canberra | Sydney | Melbourne | Brisbane | Adelaide | Perth | Hobart | Darwin

Other formats

Comma delimited format used in spreadsheet applications
http://www.bom.gov.au/fwo/IDN60903/IDN60903.94921.axf

JavaScript Object Notation format (JSON) in row-major order
http://www.bom.gov.au/fwo/IDN60903/IDN60903.94921.json

Data quality

Most of these data are generated automatically and are frequently updated. Quality checks on data are not normally performed. It is possible for incorrect values to appear. Refer to information at About Latest Weather Observations and please check the disclaimer before using these data.